Latest Weather Observations for Emerald

IDQ60801

Issued at 10:31 am EST Thursday 26 May 2016 (issued every 30 minutes, with the page automatically refreshed every 10 minutes)

About weather observations | Map of weather stations | Latest weather observations for QLD | Other Formats
Station Details ID: 035264 Name: EMERALD AIRPORT Lat: -23.57 Lon: 148.18 Height: 189.4 m
Data from the previous 72 hours. | See also: Recent months at Emerald
Date/Time
EST
Temp
°C
App
Temp
°C
Dew
Point
Rel
Hum
%
Delta-T
°C
Wind Press
QNH
hPa
Press
MSL
hPa
Rain
since 9 am
mm
Dir
 
Spd
km/h
Gust
km/h
Spd
kts
Gust
kts
26/10:30am 27.0 24.8 14.4 46 7.6 NNW 19 28 10 15 1016.6 - 0.0
26/10:00am 24.8 24.1 14.3 52 6.3 NNW 11 15 6 8 1016.9 - 0.0
26/09:30am 23.3 22.9 14.0 56 5.5 N 9 19 5 10 1017.2 - 0.0
26/09:00am 21.9 21.6 13.3 58 5.0 N 7 13 4 7 1017.2 1016.7 0.0
26/08:30am 20.2 19.1 11.9 59 4.7 N 9 11 5 6 1017.1 - 0.0
26/08:00am 18.7 17.7 11.0 61 4.2 NE 7 9 4 5 1017.0 - 0.0
26/07:30am 16.7 15.6 10.5 67 3.3 NE 7 11 4 6 1016.7 - 0.0
26/07:00am 14.7 13.0 9.7 72 2.6 ENE 9 11 5 6 1016.6 - 0.0
26/06:30am 14.2 12.8 9.4 73 2.5 NE 7 9 4 5 1016.3 - 0.0
26/06:00am 14.0 11.9 8.4 69 2.8 E 9 11 5 6 1015.9 1015.3 0.0
26/05:30am 14.5 12.8 8.2 66 3.2 E 7 9 4 5 1015.8 - 0.0
26/05:00am 14.5 12.9 8.2 66 3.2 E 6 7 3 4 1015.8 - 0.0
26/04:30am 14.5 12.9 8.2 66 3.2 ENE 6 7 3 4 1015.8 - 0.0
26/04:00am 14.8 13.1 8.3 65 3.3 NE 7 7 4 4 1015.8 - 0.0
26/03:30am 15.1 14.7 8.1 63 3.5 CALM 0 0 0 0 1015.9 - 0.0
26/03:00am 15.8 15.5 8.5 62 3.7 CALM 0 0 0 0 1015.7 1015.1 0.0
26/02:30am 16.6 15.3 7.8 56 4.5 N 4 6 2 3 1015.8 - 0.0
26/02:00am 17.1 15.6 8.5 57 4.4 N 6 7 3 4 1015.9 - 0.0
26/01:30am 16.4 14.7 7.6 56 4.5 NNE 6 7 3 4 1016.0 - 0.0
26/01:00am 16.8 16.3 8.0 56 4.5 CALM 0 0 0 0 1016.1 - 0.0
26/12:30am 16.9 15.3 8.1 56 4.5 NE 6 6 3 3 1016.4 - 0.0
26/12:00am 16.6 14.9 8.3 58 4.3 ENE 7 9 4 5 1016.4 1015.9 0.0
 
Date/Time
EST
Temp
°C
App
Temp
°C
Dew
Point
Rel
Hum
%
Delta-T
°C
Wind Press
QNH
hPa
Press
MSL
hPa
Rain
since 9 am
mm
Dir
 
Spd
km/h
Gust
km/h
Spd
kts
Gust
kts
25/11:30pm 16.9 16.6 8.6 58 4.3 CALM 0 0 0 0 1016.7 - 0.0
25/11:00pm 18.3 18.0 8.8 54 5.0 CALM 0 0 0 0 1016.8 - 0.0
25/10:30pm 19.4 18.7 8.7 50 5.6 NNW 2 7 1 4 1016.9 - 0.0
25/10:00pm 20.1 19.8 8.8 48 6.0 CALM 0 0 0 0 1016.7 - 0.0
25/09:30pm 20.9 19.0 9.2 47 6.3 NNE 9 11 5 6 1016.6 - 0.0
25/09:00pm 20.1 18.1 8.8 48 6.0 NE 9 11 5 6 1016.5 1016.0 0.0
25/08:30pm 21.2 20.2 8.8 45 6.6 NNE 4 6 2 3 1016.6 - 0.0
25/08:00pm 21.5 20.0 9.1 45 6.7 NE 7 9 4 5 1016.3 - 0.0
25/07:30pm 21.2 18.8 7.1 40 7.3 ENE 9 13 5 7 1015.9 - 0.0
25/07:00pm 22.9 21.3 7.8 38 8.0 SE 6 9 3 5 1015.8 - 0.0
25/06:30pm 23.3 21.5 7.8 37 8.2 ESE 7 9 4 5 1015.5 - 0.0
25/06:00pm 24.2 23.6 7.4 34 8.9 CALM 0 7 0 4 1015.3 1014.7 0.0
25/05:30pm 27.1 26.5 7.5 29 10.6 CALM 0 0 0 0 1015.1 - 0.0
25/05:00pm 28.5 27.4 7.1 26 11.5 E 2 6 1 3 1015.0 - 0.0
25/04:30pm 29.0 27.1 7.6 26 11.7 N 7 9 4 5 1014.7 - 0.0
25/04:00pm 28.7 26.4 7.3 26 11.6 NNE 9 15 5 8 1014.6 - 0.0
25/03:30pm 29.3 27.9 7.2 25 12.0 N 4 7 2 4 1014.6 - 0.0
25/03:00pm 28.6 26.2 7.2 26 11.6 N 9 13 5 7 1014.7 1014.1 0.0
25/02:30pm 29.1 26.8 5.9 23 12.3 WNW 7 11 4 6 1015.1 - 0.0
25/02:00pm 28.8 25.7 5.6 23 12.2 N 11 15 6 8 1015.4 - 0.0
25/01:30pm 28.6 26.2 4.2 21 12.5 SSW 6 11 3 6 1015.8 - 0.0
25/01:00pm 28.0 25.5 3.7 21 12.3 E 6 13 3 7 1016.2 - 0.0
25/12:30pm 27.3 24.1 0.9 18 12.7 SSE 7 13 4 7 1016.9 - 0.0
25/12:00pm 26.5 23.2 0.3 18 12.3 SE 7 15 4 8 1017.7 1017.2 0.0
25/11:30am 25.8 21.7 -0.3 18 12.1 ESE 11 20 6 11 1018.1 - 0.0
25/11:00am 24.7 19.7 -1.2 18 11.7 E 15 20 8 11 1018.7 - 0.0
25/10:30am 23.8 19.1 -1.9 18 11.4 SSE 13 19 7 10 1019.5 - 0.0
25/10:00am 22.4 17.7 -1.6 20 10.6 SSE 13 19 7 10 1019.9 - 0.0
25/09:30am 21.2 15.3 -2.6 20 10.2 SSE 19 28 10 15 1019.9 - 0.0
25/09:00am 21.0 14.9 -2.1 21 9.9 SSE 20 26 11 14 1019.9 1019.3 0.0
25/08:30am 19.8 13.8 -3.1 21 9.6 SSE 19 24 10 13 1019.8 - 0.0
25/08:00am 18.5 12.9 -3.0 23 8.9 SSE 17 24 9 13 1019.5 - 0.0
25/07:30am 17.0 12.2 -2.6 26 8.1 SSE 13 20 7 11 1019.0 - 0.0
25/07:00am 16.7 11.9 -2.9 26 8.0 SSE 13 19 7 10 1018.7 - 0.0
25/06:30am 17.0 11.4 -2.6 26 8.1 SSE 17 24 9 13 1018.6 - 0.0
25/06:00am 17.0 11.4 -2.6 26 8.0 SSE 17 24 9 13 1018.1 1017.6 0.0
25/05:30am 17.2 11.3 -1.9 27 8.0 SSE 19 24 10 13 1017.8 - 0.0
25/05:00am 17.4 12.9 -0.3 30 7.7 SSE 13 19 7 10 1017.6 - 0.0
25/04:30am 18.0 13.6 0.2 30 7.8 SSE 13 17 7 9 1017.5 - 0.0
25/04:00am 18.5 13.4 0.6 30 8.0 SSE 17 24 9 13 1017.4 - 0.0
25/03:30am 18.9 13.5 1.4 31 8.0 SSE 19 26 10 14 1017.6 - 0.0
25/03:00am 19.2 14.4 2.6 33 7.7 SSE 17 22 9 12 1017.7 1017.2 0.0
25/02:30am 19.9 14.6 3.2 33 7.9 SSE 20 28 11 15 1017.7 - 0.0
25/02:00am 20.3 15.3 4.8 36 7.6 SSE 20 28 11 15 1018.0 - 0.0
25/01:30am 20.2 17.2 7.6 44 6.5 SE 13 19 7 10 1018.0 - 0.0
25/01:00am 20.1 18.3 7.8 45 6.4 ESE 7 11 4 6 1018.4 - 0.0
25/12:30am 20.2 18.2 8.8 48 6.0 NNE 9 11 5 6 1018.5 - 0.0
25/12:00am 20.4 17.9 8.1 45 6.4 ESE 11 17 6 9 1018.2 1017.7 0.0
 
Date/Time
EST
Temp
°C
App
Temp
°C
Dew
Point
Rel
Hum
%
Delta-T
°C
Wind Press
QNH
hPa
Press
MSL
hPa
Rain
since 9 am
mm
Dir
 
Spd
km/h
Gust
km/h
Spd
kts
Gust
kts
24/11:30pm 21.5 18.7 8.4 43 6.9 S 13 15 7 8 1017.8 - 0.0
24/11:00pm 21.6 19.6 10.1 48 6.3 SSE 11 15 6 8 1017.8 - 0.0
24/10:30pm 20.9 19.0 10.4 51 5.8 SSE 11 15 6 8 1017.7 - 0.0
24/10:00pm 21.2 19.4 10.7 51 5.8 SE 11 15 6 8 1018.0 - 0.0
24/09:30pm 21.0 19.3 9.9 49 6.0 SE 9 9 5 5 1018.1 - 0.0
24/09:00pm 22.3 21.2 10.5 47 6.5 SE 7 9 4 5 1018.1 1017.6 0.0
24/08:30pm 21.8 20.1 10.0 47 6.5 E 9 9 5 5 1017.9 - 0.0
24/08:00pm 21.7 19.6 9.9 47 6.4 ESE 11 13 6 7 1017.6 - 0.0
24/07:30pm 22.3 20.9 10.8 48 6.4 ESE 9 11 5 6 1017.4 - 0.0
24/07:00pm 23.7 22.2 10.4 43 7.4 SE 9 11 5 6 1017.2 - 0.0
24/06:30pm 24.8 23.2 10.3 40 8.1 SE 9 9 5 5 1017.1 - 0.0
24/06:00pm 25.9 24.6 10.1 37 8.8 SE 7 9 4 5 1016.9 1016.4 0.0
24/05:30pm 26.7 25.2 10.4 36 9.2 ESE 9 11 5 6 1016.6 - 0.0
24/05:00pm 27.9 26.3 10.1 33 10.1 SE 9 13 5 7 1016.2 - 0.0
24/04:30pm 28.9 26.3 10.6 32 10.5 SE 15 19 8 10 1016.2 - 0.0
24/04:00pm 29.6 27.0 10.7 31 10.9 ESE 15 20 8 11 1015.9 - 0.0
24/03:30pm 29.5 26.5 10.6 31 10.8 ESE 17 22 9 12 1015.9 - 0.0
24/03:00pm 29.8 27.4 11.3 32 10.7 SSE 15 19 8 10 1015.9 1015.3 0.0
24/02:30pm 29.7 27.8 11.7 33 10.5 S 13 20 7 11 1015.7 - 0.0
24/02:00pm 29.6 28.0 11.6 33 10.5 S 11 17 6 9 1016.0 - 0.0
24/01:30pm 28.9 27.3 11.5 34 10.1 SSE 11 17 6 9 1016.1 - 0.0
24/01:00pm 28.8 26.9 14.2 40 8.8 SE 17 24 9 13 1016.5 - 0.0
24/12:30pm 28.6 26.5 12.5 37 9.5 S 15 26 8 14 1016.9 - 0.0
24/12:00pm 28.0 25.8 12.0 37 9.3 SSE 15 26 8 14 1017.5 1017.0 0.0
24/11:30am 27.0 24.0 11.9 39 8.8 SSE 19 24 10 13 1018.0 - 0.0
24/11:00am 26.0 23.3 11.7 41 8.2 S 17 24 9 13 1018.5 - 0.0
24/10:30am 26.1 23.1 11.8 41 8.2 S 19 26 10 14 1018.8 - 0.0
24/10:00am 26.6 23.6 12.6 42 8.2 S 20 28 11 15 1018.9 - 0.0
24/09:30am 25.4 21.8 12.9 45 7.3 SSE 24 30 13 16 1019.0 - 0.0
24/09:00am 25.2 22.6 14.9 52 6.2 S 22 30 12 16 1019.0 1018.5 0.0
24/08:30am 23.7 23.2 16.0 62 4.7 SW 13 17 7 9 1018.9 - 0.0
24/08:00am 22.1 22.0 15.9 68 3.8 SW 11 17 6 9 1018.8 - 0.0
24/07:30am 21.3 21.9 15.8 71 3.3 W 7 11 4 6 1018.4 - 0.0
24/07:00am 20.2 20.9 15.6 75 2.8 SW 6 7 3 4 1018.3 - 0.0
24/06:30am 20.1 21.6 15.7 76 2.6 WSW 2 6 1 3 1018.1 - 0.0
24/06:00am 20.3 20.8 15.5 74 2.9 W 7 11 4 6 1018.0 1017.5 0.0
24/05:30am 20.2 20.6 15.2 73 3.0 NW 7 9 4 5 1017.9 - 0.0
24/05:00am 20.2 20.4 14.8 71 3.2 NW 7 11 4 6 1017.7 - 0.0
24/04:30am 20.2 20.5 14.6 70 3.3 WNW 6 7 3 4 1017.7 - 0.0
24/04:00am 20.3 20.6 14.4 69 3.5 W 6 7 3 4 1017.6 - 0.0
24/03:30am 20.7 21.2 15.0 70 3.4 NW 6 9 3 5 1017.8 - 0.0
24/03:00am 20.5 20.8 14.6 69 3.5 N 6 7 3 4 1018.0 1017.5 0.0
24/02:30am 20.7 20.9 14.6 68 3.6 NW 7 9 4 5 1018.3 - 0.0
24/02:00am 20.7 21.0 15.0 70 3.4 W 7 9 4 5 1018.4 - 0.0
24/01:30am 20.8 20.9 15.6 72 3.1 NNW 9 11 5 6 1018.4 - 0.0
24/01:00am 20.9 22.7 15.4 71 3.3 CALM 0 0 0 0 1018.5 - 0.0
24/12:30am 21.0 22.7 15.3 70 3.4 CALM 0 0 0 0 1018.5 - 0.0
24/12:00am 20.8 22.5 15.1 70 3.4 CALM 0 0 0 0 1018.4 1017.9 0.0
 
Date/Time
EST
Temp
°C
App
Temp
°C
Dew
Point
Rel
Hum
%
Delta-T
°C
Wind Press
QNH
hPa
Press
MSL
hPa
Rain
since 9 am
mm
Dir
 
Spd
km/h
Gust
km/h
Spd
kts
Gust
kts
23/11:30pm 20.8 21.5 15.6 72 3.1 ESE 6 6 3 3 1018.7 - 0.0
23/11:00pm 21.0 22.8 15.5 71 3.3 CALM 0 0 0 0 1018.8 - 0.0
23/10:30pm 21.1 22.9 15.4 70 3.4 CALM 0 0 0 0 1018.8 - 0.0
23/10:00pm 22.1 23.8 15.2 65 4.1 CALM 0 0 0 0 1018.8 - 0.0
23/09:30pm 22.9 24.6 15.2 62 4.6 CALM 0 0 0 0 1018.9 - 0.0
23/09:00pm 22.9 24.1 15.0 61 4.7 SW 2 6 1 3 1018.8 1018.3 0.0
23/08:30pm 23.5 25.1 15.0 59 5.1 CALM 0 0 0 0 1018.8 - 0.0
23/08:00pm 23.9 25.6 15.1 58 5.3 CALM 0 0 0 0 1018.7 - 0.0
23/07:30pm 24.1 25.3 14.8 56 5.6 WSW 2 6 1 3 1018.6 - 0.0
23/07:00pm 25.0 25.3 15.0 53 6.0 W 7 9 4 5 1018.5 - 0.0
23/06:30pm 25.1 25.4 15.1 53 6.1 WSW 7 11 4 6 1018.2 - 0.0
23/06:00pm 25.6 26.0 14.7 51 6.6 W 6 7 3 4 1018.0 1017.5 0.0
23/05:30pm 25.7 26.1 14.8 51 6.6 NW 6 7 3 4 1017.7 - 0.0
23/05:00pm 26.0 26.2 14.8 50 6.8 NNW 7 9 4 5 1017.6 - 0.0
23/04:30pm 26.2 26.1 15.0 50 6.8 N 9 11 5 6 1017.4 - 0.0
23/04:00pm 26.2 26.1 15.0 50 6.8 N 9 13 5 7 1017.3 - 0.0
23/03:30pm 26.5 26.5 15.2 49 6.9 NNW 9 15 5 8 1017.3 - 0.0
23/03:00pm 26.6 26.7 14.4 47 7.3 ENE 7 11 4 6 1017.3 1016.8 0.0
23/02:30pm 26.9 27.2 14.6 46 7.4 SW 6 11 3 6 1017.4 - 0.0
23/02:00pm 27.0 27.2 14.7 47 7.5 ENE 7 17 4 9 1017.5 - 0.0
23/01:30pm 26.5 26.5 15.2 49 6.9 E 9 17 5 9 1017.9 - 0.0
23/01:00pm 26.3 26.0 15.4 51 6.7 E 11 15 6 8 1018.2 - 0.0
23/12:30pm 25.9 25.7 15.6 53 6.3 ENE 11 17 6 9 1018.7 - 0.0
23/12:00pm 25.5 25.8 16.1 56 5.8 ENE 9 15 5 8 1019.6 1019.0 0.0
23/11:30am 24.5 24.1 16.2 60 5.1 E 13 20 7 11 1020.2 - 0.0
23/11:00am 24.2 24.4 16.7 63 4.6 ESE 11 17 6 9 1020.6 - 0.0

Other Formats:

Comma delimited format used in spreadsheet applications
http://www.bom.gov.au/fwo/IDQ60801/IDQ60801.94363.axf

JavaScript Object Notation format (JSON) in row-major order
http://www.bom.gov.au/fwo/IDQ60801/IDQ60801.94363.json